sensor_id;sensor_type;location;lat;lon;timestamp;P1;durP1;ratioP1;P2;durP2;ratioP2
75216;SDS011;63800;51.972;5.682;2024-03-25T00:01:13;11.25;;;2.97;;
75216;SDS011;63800;51.972;5.682;2024-03-25T00:03:38;11.82;;;2.30;;
75216;SDS011;63800;51.972;5.682;2024-03-25T00:06:04;11.35;;;2.00;;
75216;SDS011;63800;51.972;5.682;2024-03-25T00:08:29;13.52;;;2.55;;
75216;SDS011;63800;51.972;5.682;2024-03-25T00:10:55;14.05;;;4.05;;
75216;SDS011;63800;51.972;5.682;2024-03-25T00:13:21;12.85;;;2.70;;
75216;SDS011;63800;51.972;5.682;2024-03-25T00:15:46;11.27;;;2.90;;
75216;SDS011;63800;51.972;5.682;2024-03-25T00:18:12;11.00;;;3.03;;
75216;SDS011;63800;51.972;5.682;2024-03-25T00:20:37;11.18;;;2.42;;
75216;SDS011;63800;51.972;5.682;2024-03-25T00:23:03;9.65;;;2.85;;
75216;SDS011;63800;51.972;5.682;2024-03-25T00:25:28;16.67;;;3.05;;
75216;SDS011;63800;51.972;5.682;2024-03-25T00:27:54;13.80;;;3.13;;
75216;SDS011;63800;51.972;5.682;2024-03-25T00:30:19;10.95;;;3.28;;
75216;SDS011;63800;51.972;5.682;2024-03-25T00:32:45;11.55;;;2.80;;
75216;SDS011;63800;51.972;5.682;2024-03-25T00:35:11;11.15;;;3.15;;
75216;SDS011;63800;51.972;5.682;2024-03-25T00:37:37;16.10;;;3.35;;
75216;SDS011;63800;51.972;5.682;2024-03-25T00:40:02;16.02;;;3.65;;
75216;SDS011;63800;51.972;5.682;2024-03-25T00:42:29;11.93;;;3.40;;
75216;SDS011;63800;51.972;5.682;2024-03-25T00:44:55;14.85;;;3.20;;
75216;SDS011;63800;51.972;5.682;2024-03-25T00:47:20;17.50;;;4.05;;
75216;SDS011;63800;51.972;5.682;2024-03-25T00:49:46;11.95;;;2.60;;
75216;SDS011;63800;51.972;5.682;2024-03-25T00:52:12;13.73;;;3.47;;
75216;SDS011;63800;51.972;5.682;2024-03-25T00:54:37;11.88;;;3.08;;
75216;SDS011;63800;51.972;5.682;2024-03-25T00:57:03;13.80;;;3.15;;
75216;SDS011;63800;51.972;5.682;2024-03-25T00:59:28;15.65;;;3.30;;
75216;SDS011;63800;51.972;5.682;2024-03-25T01:01:54;13.13;;;3.15;;
75216;SDS011;63800;51.972;5.682;2024-03-25T01:04:19;16.70;;;3.40;;
75216;SDS011;63800;51.972;5.682;2024-03-25T01:06:44;14.50;;;3.70;;
75216;SDS011;63800;51.972;5.682;2024-03-25T01:09:10;12.68;;;3.80;;
75216;SDS011;63800;51.972;5.682;2024-03-25T01:11:35;13.65;;;3.63;;
75216;SDS011;63800;51.972;5.682;2024-03-25T01:14:01;17.02;;;3.55;;
75216;SDS011;63800;51.972;5.682;2024-03-25T01:16:26;15.95;;;3.67;;
75216;SDS011;63800;51.972;5.682;2024-03-25T01:18:52;11.55;;;3.50;;
75216;SDS011;63800;51.972;5.682;2024-03-25T01:21:17;14.57;;;3.90;;
75216;SDS011;63800;51.972;5.682;2024-03-25T01:23:43;13.85;;;3.80;;
75216;SDS011;63800;51.972;5.682;2024-03-25T01:26:08;15.23;;;3.67;;
75216;SDS011;63800;51.972;5.682;2024-03-25T01:28:34;11.82;;;3.42;;
75216;SDS011;63800;51.972;5.682;2024-03-25T01:30:59;19.98;;;4.00;;
75216;SDS011;63800;51.972;5.682;2024-03-25T01:33:25;13.35;;;3.85;;
75216;SDS011;63800;51.972;5.682;2024-03-25T01:35:51;12.45;;;3.88;;
75216;SDS011;63800;51.972;5.682;2024-03-25T01:38:16;17.58;;;4.63;;
75216;SDS011;63800;51.972;5.682;2024-03-25T01:40:41;18.33;;;3.53;;
75216;SDS011;63800;51.972;5.682;2024-03-25T01:43:07;16.48;;;3.33;;
75216;SDS011;63800;51.972;5.682;2024-03-25T01:45:33;18.95;;;3.47;;
75216;SDS011;63800;51.972;5.682;2024-03-25T01:48:04;11.38;;;3.13;;
75216;SDS011;63800;51.972;5.682;2024-03-25T01:50:33;16.33;;;4.00;;
75216;SDS011;63800;51.972;5.682;2024-03-25T01:53:01;14.23;;;3.40;;
75216;SDS011;63800;51.972;5.682;2024-03-25T01:55:28;22.23;;;3.75;;
75216;SDS011;63800;51.972;5.682;2024-03-25T01:57:55;18.58;;;3.40;;
75216;SDS011;63800;51.972;5.682;2024-03-25T02:00:21;18.55;;;4.07;;
75216;SDS011;63800;51.972;5.682;2024-03-25T02:02:49;15.60;;;3.70;;
75216;SDS011;63800;51.972;5.682;2024-03-25T02:05:16;15.32;;;3.50;;
75216;SDS011;63800;51.972;5.682;2024-03-25T02:07:43;16.60;;;3.70;;
75216;SDS011;63800;51.972;5.682;2024-03-25T02:10:09;17.05;;;4.00;;
75216;SDS011;63800;51.972;5.682;2024-03-25T02:12:36;14.63;;;3.25;;
75216;SDS011;63800;51.972;5.682;2024-03-25T02:15:03;16.10;;;3.70;;
75216;SDS011;63800;51.972;5.682;2024-03-25T02:17:30;21.88;;;3.83;;
75216;SDS011;63800;51.972;5.682;2024-03-25T02:19:55;17.35;;;3.45;;
75216;SDS011;63800;51.972;5.682;2024-03-25T02:22:21;13.63;;;3.20;;
75216;SDS011;63800;51.972;5.682;2024-03-25T02:24:46;18.45;;;3.53;;
75216;SDS011;63800;51.972;5.682;2024-03-25T02:27:15;13.52;;;3.35;;
75216;SDS011;63800;51.972;5.682;2024-03-25T02:29:42;9.77;;;3.78;;
75216;SDS011;63800;51.972;5.682;2024-03-25T02:32:07;9.60;;;3.50;;
75216;SDS011;63800;51.972;5.682;2024-03-25T02:34:37;17.35;;;4.10;;
75216;SDS011;63800;51.972;5.682;2024-03-25T02:37:04;14.75;;;3.15;;
75216;SDS011;63800;51.972;5.682;2024-03-25T02:39:30;12.45;;;3.50;;
75216;SDS011;63800;51.972;5.682;2024-03-25T02:41:57;15.75;;;3.70;;
75216;SDS011;63800;51.972;5.682;2024-03-25T02:44:22;16.58;;;3.72;;
75216;SDS011;63800;51.972;5.682;2024-03-25T02:46:48;16.92;;;3.90;;
75216;SDS011;63800;51.972;5.682;2024-03-25T02:49:14;17.52;;;4.22;;
75216;SDS011;63800;51.972;5.682;2024-03-25T02:51:40;12.75;;;3.33;;
75216;SDS011;63800;51.972;5.682;2024-03-25T02:54:05;16.45;;;3.42;;
75216;SDS011;63800;51.972;5.682;2024-03-25T02:56:31;12.02;;;3.08;;
75216;SDS011;63800;51.972;5.682;2024-03-25T02:58:56;12.18;;;3.35;;
75216;SDS011;63800;51.972;5.682;2024-03-25T03:01:21;13.60;;;4.57;;
75216;SDS011;63800;51.972;5.682;2024-03-25T03:03:47;12.75;;;3.55;;
75216;SDS011;63800;51.972;5.682;2024-03-25T03:06:12;14.73;;;3.42;;
75216;SDS011;63800;51.972;5.682;2024-03-25T03:08:38;19.55;;;3.50;;
75216;SDS011;63800;51.972;5.682;2024-03-25T03:11:03;22.08;;;3.47;;
75216;SDS011;63800;51.972;5.682;2024-03-25T03:13:29;15.88;;;4.28;;
75216;SDS011;63800;51.972;5.682;2024-03-25T03:15:54;13.70;;;4.07;;
75216;SDS011;63800;51.972;5.682;2024-03-25T03:18:20;13.80;;;3.90;;
75216;SDS011;63800;51.972;5.682;2024-03-25T03:20:45;11.32;;;3.05;;
75216;SDS011;63800;51.972;5.682;2024-03-25T03:23:12;14.70;;;3.72;;
75216;SDS011;63800;51.972;5.682;2024-03-25T03:25:37;15.90;;;4.00;;
75216;SDS011;63800;51.972;5.682;2024-03-25T03:28:03;11.30;;;3.38;;
75216;SDS011;63800;51.972;5.682;2024-03-25T03:30:29;9.38;;;3.42;;
75216;SDS011;63800;51.972;5.682;2024-03-25T03:32:54;18.90;;;3.85;;
75216;SDS011;63800;51.972;5.682;2024-03-25T03:35:19;15.98;;;3.85;;
75216;SDS011;63800;51.972;5.682;2024-03-25T03:37:45;13.90;;;3.63;;
75216;SDS011;63800;51.972;5.682;2024-03-25T03:40:10;12.90;;;3.72;;
75216;SDS011;63800;51.972;5.682;2024-03-25T03:42:36;11.68;;;4.18;;
75216;SDS011;63800;51.972;5.682;2024-03-25T03:45:01;16.38;;;3.83;;
75216;SDS011;63800;51.972;5.682;2024-03-25T03:47:27;9.48;;;3.30;;
75216;SDS011;63800;51.972;5.682;2024-03-25T03:49:52;13.00;;;3.50;;
75216;SDS011;63800;51.972;5.682;2024-03-25T03:52:18;11.80;;;3.13;;
75216;SDS011;63800;51.972;5.682;2024-03-25T03:54:43;12.55;;;3.33;;
75216;SDS011;63800;51.972;5.682;2024-03-25T03:57:09;13.00;;;3.47;;
75216;SDS011;63800;51.972;5.682;2024-03-25T03:59:34;11.68;;;3.33;;
75216;SDS011;63800;51.972;5.682;2024-03-25T04:02:00;14.85;;;3.53;;
75216;SDS011;63800;51.972;5.682;2024-03-25T04:04:25;9.00;;;2.95;;
75216;SDS011;63800;51.972;5.682;2024-03-25T04:06:51;11.82;;;3.40;;
75216;SDS011;63800;51.972;5.682;2024-03-25T04:09:16;9.05;;;2.90;;
75216;SDS011;63800;51.972;5.682;2024-03-25T04:11:43;13.27;;;3.60;;
75216;SDS011;63800;51.972;5.682;2024-03-25T04:14:08;8.38;;;2.88;;
75216;SDS011;63800;51.972;5.682;2024-03-25T04:16:33;8.65;;;2.83;;
75216;SDS011;63800;51.972;5.682;2024-03-25T04:18:59;14.43;;;2.97;;
75216;SDS011;63800;51.972;5.682;2024-03-25T04:21:24;11.27;;;3.22;;
75216;SDS011;63800;51.972;5.682;2024-03-25T04:23:49;10.02;;;3.50;;
75216;SDS011;63800;51.972;5.682;2024-03-25T04:26:15;10.55;;;2.97;;
75216;SDS011;63800;51.972;5.682;2024-03-25T04:28:40;15.45;;;3.70;;
75216;SDS011;63800;51.972;5.682;2024-03-25T04:31:07;13.38;;;3.40;;
75216;SDS011;63800;51.972;5.682;2024-03-25T04:33:33;9.65;;;3.00;;
75216;SDS011;63800;51.972;5.682;2024-03-25T04:35:59;11.60;;;3.53;;
75216;SDS011;63800;51.972;5.682;2024-03-25T04:38:24;13.82;;;3.60;;
75216;SDS011;63800;51.972;5.682;2024-03-25T04:40:50;8.40;;;3.60;;
75216;SDS011;63800;51.972;5.682;2024-03-25T04:43:16;9.65;;;3.53;;
75216;SDS011;63800;51.972;5.682;2024-03-25T04:45:41;12.23;;;3.20;;
75216;SDS011;63800;51.972;5.682;2024-03-25T04:48:07;11.32;;;3.00;;
75216;SDS011;63800;51.972;5.682;2024-03-25T04:50:33;8.27;;;3.00;;
75216;SDS011;63800;51.972;5.682;2024-03-25T04:52:59;11.77;;;3.78;;
75216;SDS011;63800;51.972;5.682;2024-03-25T04:55:25;11.13;;;3.45;;
75216;SDS011;63800;51.972;5.682;2024-03-25T04:57:50;12.82;;;3.85;;
75216;SDS011;63800;51.972;5.682;2024-03-25T05:00:16;17.15;;;4.40;;
75216;SDS011;63800;51.972;5.682;2024-03-25T05:02:42;16.02;;;4.60;;
75216;SDS011;63800;51.972;5.682;2024-03-25T05:05:07;15.05;;;3.97;;
75216;SDS011;63800;51.972;5.682;2024-03-25T05:07:33;11.10;;;4.00;;
75216;SDS011;63800;51.972;5.682;2024-03-25T05:09:59;12.68;;;4.28;;
75216;SDS011;63800;51.972;5.682;2024-03-25T05:12:24;21.55;;;5.20;;
75216;SDS011;63800;51.972;5.682;2024-03-25T05:14:54;12.75;;;4.72;;
75216;SDS011;63800;51.972;5.682;2024-03-25T05:17:20;16.98;;;4.35;;
75216;SDS011;63800;51.972;5.682;2024-03-25T05:19:46;19.02;;;4.97;;
75216;SDS011;63800;51.972;5.682;2024-03-25T05:22:11;13.63;;;4.40;;
75216;SDS011;63800;51.972;5.682;2024-03-25T05:24:36;15.48;;;4.80;;
75216;SDS011;63800;51.972;5.682;2024-03-25T05:27:02;19.35;;;4.25;;
75216;SDS011;63800;51.972;5.682;2024-03-25T05:29:27;15.90;;;5.72;;
75216;SDS011;63800;51.972;5.682;2024-03-25T05:31:59;19.48;;;5.07;;
75216;SDS011;63800;51.972;5.682;2024-03-25T05:34:26;14.98;;;4.95;;
75216;SDS011;63800;51.972;5.682;2024-03-25T05:36:52;17.90;;;4.57;;
75216;SDS011;63800;51.972;5.682;2024-03-25T05:39:18;15.80;;;4.85;;
75216;SDS011;63800;51.972;5.682;2024-03-25T05:41:45;11.35;;;4.55;;
75216;SDS011;63800;51.972;5.682;2024-03-25T05:44:11;13.90;;;4.75;;
75216;SDS011;63800;51.972;5.682;2024-03-25T05:46:36;14.43;;;5.35;;
75216;SDS011;63800;51.972;5.682;2024-03-25T05:49:02;13.45;;;4.70;;
75216;SDS011;63800;51.972;5.682;2024-03-25T05:51:29;15.77;;;5.70;;
75216;SDS011;63800;51.972;5.682;2024-03-25T05:53:54;14.73;;;5.57;;
75216;SDS011;63800;51.972;5.682;2024-03-25T05:56:20;18.17;;;6.00;;
75216;SDS011;63800;51.972;5.682;2024-03-25T05:58:45;18.17;;;6.43;;
75216;SDS011;63800;51.972;5.682;2024-03-25T06:01:11;19.02;;;6.43;;
75216;SDS011;63800;51.972;5.682;2024-03-25T06:03:36;19.35;;;6.78;;
75216;SDS011;63800;51.972;5.682;2024-03-25T06:06:02;17.98;;;6.05;;
75216;SDS011;63800;51.972;5.682;2024-03-25T06:08:27;22.10;;;6.85;;
75216;SDS011;63800;51.972;5.682;2024-03-25T06:10:54;14.95;;;6.30;;
75216;SDS011;63800;51.972;5.682;2024-03-25T06:13:20;19.42;;;7.22;;
75216;SDS011;63800;51.972;5.682;2024-03-25T06:15:46;17.13;;;7.03;;
75216;SDS011;63800;51.972;5.682;2024-03-25T06:18:12;17.85;;;6.60;;
75216;SDS011;63800;51.972;5.682;2024-03-25T06:20:37;24.33;;;6.97;;
75216;SDS011;63800;51.972;5.682;2024-03-25T06:23:03;22.85;;;7.65;;
75216;SDS011;63800;51.972;5.682;2024-03-25T06:25:29;21.92;;;6.30;;
75216;SDS011;63800;51.972;5.682;2024-03-25T06:27:55;24.05;;;7.30;;
75216;SDS011;63800;51.972;5.682;2024-03-25T06:30:21;22.85;;;6.95;;
75216;SDS011;63800;51.972;5.682;2024-03-25T06:33:05;18.30;;;6.53;;
75216;SDS011;63800;51.972;5.682;2024-03-25T06:35:49;20.50;;;6.43;;
75216;SDS011;63800;51.972;5.682;2024-03-25T06:38:14;21.65;;;6.35;;
75216;SDS011;63800;51.972;5.682;2024-03-25T06:40:40;20.73;;;7.10;;
75216;SDS011;63800;51.972;5.682;2024-03-25T06:43:05;18.13;;;6.25;;
75216;SDS011;63800;51.972;5.682;2024-03-25T06:45:31;21.67;;;7.03;;
75216;SDS011;63800;51.972;5.682;2024-03-25T06:47:57;25.17;;;7.30;;
75216;SDS011;63800;51.972;5.682;2024-03-25T06:50:25;15.18;;;6.03;;
75216;SDS011;63800;51.972;5.682;2024-03-25T06:52:50;17.10;;;6.00;;
75216;SDS011;63800;51.972;5.682;2024-03-25T06:55:16;21.88;;;6.63;;
75216;SDS011;63800;51.972;5.682;2024-03-25T06:57:43;17.33;;;6.07;;
75216;SDS011;63800;51.972;5.682;2024-03-25T07:00:09;20.50;;;5.72;;
75216;SDS011;63800;51.972;5.682;2024-03-25T07:02:38;19.85;;;6.50;;
75216;SDS011;63800;51.972;5.682;2024-03-25T07:05:06;21.92;;;6.25;;
75216;SDS011;63800;51.972;5.682;2024-03-25T07:07:32;20.52;;;6.03;;
75216;SDS011;63800;51.972;5.682;2024-03-25T07:09:59;19.73;;;6.20;;
75216;SDS011;63800;51.972;5.682;2024-03-25T07:12:24;23.65;;;8.07;;
75216;SDS011;63800;51.972;5.682;2024-03-25T07:14:50;17.65;;;6.47;;
75216;SDS011;63800;51.972;5.682;2024-03-25T07:17:15;21.88;;;6.85;;
75216;SDS011;63800;51.972;5.682;2024-03-25T07:19:40;20.73;;;6.55;;
75216;SDS011;63800;51.972;5.682;2024-03-25T07:22:06;19.77;;;6.78;;
75216;SDS011;63800;51.972;5.682;2024-03-25T07:24:32;17.35;;;6.32;;
75216;SDS011;63800;51.972;5.682;2024-03-25T07:26:57;16.73;;;5.65;;
75216;SDS011;63800;51.972;5.682;2024-03-25T07:29:23;19.13;;;5.68;;
75216;SDS011;63800;51.972;5.682;2024-03-25T07:31:48;18.30;;;5.28;;
75216;SDS011;63800;51.972;5.682;2024-03-25T07:34:14;17.23;;;5.75;;
75216;SDS011;63800;51.972;5.682;2024-03-25T07:36:39;16.90;;;6.25;;
75216;SDS011;63800;51.972;5.682;2024-03-25T07:39:04;16.95;;;5.32;;
75216;SDS011;63800;51.972;5.682;2024-03-25T07:41:36;16.27;;;5.70;;
75216;SDS011;63800;51.972;5.682;2024-03-25T07:44:02;19.10;;;6.70;;
75216;SDS011;63800;51.972;5.682;2024-03-25T07:46:29;20.80;;;5.40;;
75216;SDS011;63800;51.972;5.682;2024-03-25T07:48:55;15.10;;;5.28;;
75216;SDS011;63800;51.972;5.682;2024-03-25T07:51:20;18.13;;;5.57;;
75216;SDS011;63800;51.972;5.682;2024-03-25T07:53:46;20.25;;;5.60;;
75216;SDS011;63800;51.972;5.682;2024-03-25T07:56:11;26.38;;;6.63;;
75216;SDS011;63800;51.972;5.682;2024-03-25T07:58:36;19.77;;;7.68;;
75216;SDS011;63800;51.972;5.682;2024-03-25T08:01:02;21.75;;;8.20;;
75216;SDS011;63800;51.972;5.682;2024-03-25T08:03:27;18.05;;;8.23;;
75216;SDS011;63800;51.972;5.682;2024-03-25T08:05:53;19.88;;;6.28;;
75216;SDS011;63800;51.972;5.682;2024-03-25T08:08:18;18.00;;;5.82;;
75216;SDS011;63800;51.972;5.682;2024-03-25T08:10:45;18.05;;;5.38;;
75216;SDS011;63800;51.972;5.682;2024-03-25T08:13:10;17.00;;;6.10;;
75216;SDS011;63800;51.972;5.682;2024-03-25T08:15:36;15.73;;;5.75;;
75216;SDS011;63800;51.972;5.682;2024-03-25T08:18:02;17.90;;;6.50;;
75216;SDS011;63800;51.972;5.682;2024-03-25T08:20:27;18.70;;;5.63;;
75216;SDS011;63800;51.972;5.682;2024-03-25T08:22:53;16.50;;;6.32;;
75216;SDS011;63800;51.972;5.682;2024-03-25T08:25:18;17.63;;;6.22;;
75216;SDS011;63800;51.972;5.682;2024-03-25T08:27:44;20.23;;;5.95;;
75216;SDS011;63800;51.972;5.682;2024-03-25T08:30:09;17.67;;;6.47;;
75216;SDS011;63800;51.972;5.682;2024-03-25T08:32:35;21.48;;;7.10;;
75216;SDS011;63800;51.972;5.682;2024-03-25T08:35:00;15.43;;;5.88;;
75216;SDS011;63800;51.972;5.682;2024-03-25T08:37:26;19.33;;;7.38;;
75216;SDS011;63800;51.972;5.682;2024-03-25T08:39:51;21.98;;;6.60;;
75216;SDS011;63800;51.972;5.682;2024-03-25T08:42:17;21.35;;;7.13;;
75216;SDS011;63800;51.972;5.682;2024-03-25T08:44:42;20.42;;;6.68;;
75216;SDS011;63800;51.972;5.682;2024-03-25T08:47:07;19.83;;;6.07;;
75216;SDS011;63800;51.972;5.682;2024-03-25T08:49:33;16.88;;;6.45;;
75216;SDS011;63800;51.972;5.682;2024-03-25T08:51:58;18.05;;;5.55;;
75216;SDS011;63800;51.972;5.682;2024-03-25T08:54:24;18.13;;;6.00;;
75216;SDS011;63800;51.972;5.682;2024-03-25T08:56:49;17.67;;;6.35;;
75216;SDS011;63800;51.972;5.682;2024-03-25T08:59:14;16.63;;;7.30;;
75216;SDS011;63800;51.972;5.682;2024-03-25T09:01:40;16.80;;;6.80;;
75216;SDS011;63800;51.972;5.682;2024-03-25T09:04:05;17.10;;;5.65;;
75216;SDS011;63800;51.972;5.682;2024-03-25T09:06:31;16.13;;;6.15;;
75216;SDS011;63800;51.972;5.682;2024-03-25T09:08:56;16.73;;;5.28;;
75216;SDS011;63800;51.972;5.682;2024-03-25T09:11:40;14.63;;;6.00;;
75216;SDS011;63800;51.972;5.682;2024-03-25T09:14:05;18.70;;;6.70;;
75216;SDS011;63800;51.972;5.682;2024-03-25T09:16:31;16.73;;;5.47;;
75216;SDS011;63800;51.972;5.682;2024-03-25T09:18:57;13.90;;;6.03;;
75216;SDS011;63800;51.972;5.682;2024-03-25T09:21:22;13.43;;;5.55;;
75216;SDS011;63800;51.972;5.682;2024-03-25T09:23:49;20.95;;;5.25;;
75216;SDS011;63800;51.972;5.682;2024-03-25T09:26:15;13.23;;;4.88;;
75216;SDS011;63800;51.972;5.682;2024-03-25T09:28:40;15.07;;;5.18;;
75216;SDS011;63800;51.972;5.682;2024-03-25T09:31:06;10.82;;;4.63;;
75216;SDS011;63800;51.972;5.682;2024-03-25T09:33:31;10.45;;;4.90;;
75216;SDS011;63800;51.972;5.682;2024-03-25T09:35:57;18.10;;;5.00;;
75216;SDS011;63800;51.972;5.682;2024-03-25T09:38:22;15.85;;;5.53;;
75216;SDS011;63800;51.972;5.682;2024-03-25T09:40:47;32.80;;;5.80;;
75216;SDS011;63800;51.972;5.682;2024-03-25T09:43:19;46.03;;;8.90;;
75216;SDS011;63800;51.972;5.682;2024-03-25T09:45:58;16.15;;;6.20;;
75216;SDS011;63800;51.972;5.682;2024-03-25T09:48:24;16.02;;;5.55;;
75216;SDS011;63800;51.972;5.682;2024-03-25T09:50:50;13.63;;;5.40;;
75216;SDS011;63800;51.972;5.682;2024-03-25T09:53:18;14.50;;;5.70;;
75216;SDS011;63800;51.972;5.682;2024-03-25T09:55:44;14.50;;;5.75;;
75216;SDS011;63800;51.972;5.682;2024-03-25T09:58:11;17.73;;;5.70;;
75216;SDS011;63800;51.972;5.682;2024-03-25T10:00:37;16.13;;;6.57;;
75216;SDS011;63800;51.972;5.682;2024-03-25T10:03:04;14.18;;;6.13;;
75216;SDS011;63800;51.972;5.682;2024-03-25T10:05:31;13.82;;;5.82;;
75216;SDS011;63800;51.972;5.682;2024-03-25T10:07:57;12.40;;;4.28;;
75216;SDS011;63800;51.972;5.682;2024-03-25T10:10:22;11.43;;;3.60;;
75216;SDS011;63800;51.972;5.682;2024-03-25T10:12:48;7.78;;;4.18;;
75216;SDS011;63800;51.972;5.682;2024-03-25T10:15:16;10.15;;;4.53;;
75216;SDS011;63800;51.972;5.682;2024-03-25T10:17:42;10.98;;;4.93;;
75216;SDS011;63800;51.972;5.682;2024-03-25T10:20:13;10.70;;;4.90;;
75216;SDS011;63800;51.972;5.682;2024-03-25T10:22:42;12.88;;;4.72;;
75216;SDS011;63800;51.972;5.682;2024-03-25T10:25:28;10.00;;;4.45;;
75216;SDS011;63800;51.972;5.682;2024-03-25T10:27:57;11.48;;;5.00;;
75216;SDS011;63800;51.972;5.682;2024-03-25T10:30:24;16.48;;;5.38;;
75216;SDS011;63800;51.972;5.682;2024-03-25T10:33:02;13.45;;;5.18;;
75216;SDS011;63800;51.972;5.682;2024-03-25T10:35:33;11.18;;;5.35;;
75216;SDS011;63800;51.972;5.682;2024-03-25T10:38:00;15.52;;;5.25;;
75216;SDS011;63800;51.972;5.682;2024-03-25T10:40:29;14.63;;;5.20;;
75216;SDS011;63800;51.972;5.682;2024-03-25T10:43:18;12.80;;;5.00;;
75216;SDS011;63800;51.972;5.682;2024-03-25T10:45:45;14.60;;;5.65;;
75216;SDS011;63800;51.972;5.682;2024-03-25T10:48:15;9.02;;;4.97;;
75216;SDS011;63800;51.972;5.682;2024-03-25T10:50:43;13.05;;;5.53;;
75216;SDS011;63800;51.972;5.682;2024-03-25T10:53:08;11.27;;;5.18;;
75216;SDS011;63800;51.972;5.682;2024-03-25T10:55:36;10.45;;;4.95;;
75216;SDS011;63800;51.972;5.682;2024-03-25T10:58:03;14.98;;;5.50;;
75216;SDS011;63800;51.972;5.682;2024-03-25T11:00:29;12.57;;;5.72;;
75216;SDS011;63800;51.972;5.682;2024-03-25T11:02:55;10.63;;;5.40;;
75216;SDS011;63800;51.972;5.682;2024-03-25T11:05:22;9.68;;;5.50;;
75216;SDS011;63800;51.972;5.682;2024-03-25T11:07:48;12.75;;;5.60;;
75216;SDS011;63800;51.972;5.682;2024-03-25T11:10:13;13.85;;;5.65;;
75216;SDS011;63800;51.972;5.682;2024-03-25T11:12:41;10.95;;;6.03;;
75216;SDS011;63800;51.972;5.682;2024-03-25T11:15:07;10.50;;;5.85;;
75216;SDS011;63800;51.972;5.682;2024-03-25T11:17:33;9.65;;;6.10;;
75216;SDS011;63800;51.972;5.682;2024-03-25T11:20:09;14.18;;;7.28;;
75216;SDS011;63800;51.972;5.682;2024-03-25T11:22:35;14.00;;;5.95;;
75216;SDS011;63800;51.972;5.682;2024-03-25T11:25:07;10.07;;;5.38;;
75216;SDS011;63800;51.972;5.682;2024-03-25T11:27:36;12.73;;;6.13;;
75216;SDS011;63800;51.972;5.682;2024-03-25T11:30:02;12.57;;;6.80;;
75216;SDS011;63800;51.972;5.682;2024-03-25T11:32:40;14.77;;;6.57;;
75216;SDS011;63800;51.972;5.682;2024-03-25T11:35:11;10.45;;;5.60;;
75216;SDS011;63800;51.972;5.682;2024-03-25T11:37:40;11.77;;;4.93;;
75216;SDS011;63800;51.972;5.682;2024-03-25T11:40:07;13.23;;;5.53;;
75216;SDS011;63800;51.972;5.682;2024-03-25T11:42:41;8.95;;;5.20;;
75216;SDS011;63800;51.972;5.682;2024-03-25T11:47:46;8.85;;;4.95;;
75216;SDS011;63800;51.972;5.682;2024-03-25T11:50:14;8.00;;;4.80;;
75216;SDS011;63800;51.972;5.682;2024-03-25T11:52:41;6.90;;;4.40;;
75216;SDS011;63800;51.972;5.682;2024-03-25T11:55:07;8.82;;;5.32;;
75216;SDS011;63800;51.972;5.682;2024-03-25T11:57:33;9.02;;;4.85;;
75216;SDS011;63800;51.972;5.682;2024-03-25T12:00:00;9.55;;;5.00;;
75216;SDS011;63800;51.972;5.682;2024-03-25T12:02:26;8.80;;;4.78;;
75216;SDS011;63800;51.972;5.682;2024-03-25T12:04:51;7.20;;;4.90;;
75216;SDS011;63800;51.972;5.682;2024-03-25T12:07:17;10.32;;;5.57;;
75216;SDS011;63800;51.972;5.682;2024-03-25T12:09:43;8.30;;;4.75;;
75216;SDS011;63800;51.972;5.682;2024-03-25T12:12:27;10.52;;;5.03;;
75216;SDS011;63800;51.972;5.682;2024-03-25T12:14:53;6.30;;;4.93;;
75216;SDS011;63800;51.972;5.682;2024-03-25T12:17:20;6.95;;;5.07;;
75216;SDS011;63800;51.972;5.682;2024-03-25T12:20:01;10.02;;;4.97;;
75216;SDS011;63800;51.972;5.682;2024-03-25T12:22:28;13.50;;;5.65;;
75216;SDS011;63800;51.972;5.682;2024-03-25T12:24:56;10.20;;;4.90;;
75216;SDS011;63800;51.972;5.682;2024-03-25T12:27:22;9.82;;;4.88;;
75216;SDS011;63800;51.972;5.682;2024-03-25T12:29:56;8.40;;;4.45;;
75216;SDS011;63800;51.972;5.682;2024-03-25T12:32:36;7.28;;;4.20;;
75216;SDS011;63800;51.972;5.682;2024-03-25T12:35:02;10.40;;;4.50;;
75216;SDS011;63800;51.972;5.682;2024-03-25T12:37:32;6.85;;;3.83;;
75216;SDS011;63800;51.972;5.682;2024-03-25T12:39:57;8.45;;;4.07;;
75216;SDS011;63800;51.972;5.682;2024-03-25T12:42:24;5.50;;;3.22;;
75216;SDS011;63800;51.972;5.682;2024-03-25T12:44:51;7.07;;;3.67;;
75216;SDS011;63800;51.972;5.682;2024-03-25T12:47:17;4.47;;;3.75;;
75216;SDS011;63800;51.972;5.682;2024-03-25T12:49:43;7.35;;;3.70;;
75216;SDS011;63800;51.972;5.682;2024-03-25T12:52:08;7.03;;;3.67;;
75216;SDS011;63800;51.972;5.682;2024-03-25T12:54:34;5.93;;;3.40;;
75216;SDS011;63800;51.972;5.682;2024-03-25T12:56:59;5.72;;;3.50;;
75216;SDS011;63800;51.972;5.682;2024-03-25T12:59:25;6.55;;;3.75;;
75216;SDS011;63800;51.972;5.682;2024-03-25T13:01:50;4.30;;;3.13;;
75216;SDS011;63800;51.972;5.682;2024-03-25T13:04:17;7.55;;;3.50;;
75216;SDS011;63800;51.972;5.682;2024-03-25T13:06:42;8.00;;;3.65;;
75216;SDS011;63800;51.972;5.682;2024-03-25T13:09:08;6.88;;;4.10;;
75216;SDS011;63800;51.972;5.682;2024-03-25T13:11:34;7.45;;;4.15;;
75216;SDS011;63800;51.972;5.682;2024-03-25T13:14:00;6.72;;;4.30;;
75216;SDS011;63800;51.972;5.682;2024-03-25T13:16:26;7.75;;;4.60;;
75216;SDS011;63800;51.972;5.682;2024-03-25T13:18:51;8.50;;;4.82;;
75216;SDS011;63800;51.972;5.682;2024-03-25T13:21:17;6.25;;;3.78;;
75216;SDS011;63800;51.972;5.682;2024-03-25T13:23:42;8.52;;;4.18;;
75216;SDS011;63800;51.972;5.682;2024-03-25T13:26:08;6.22;;;4.03;;
75216;SDS011;63800;51.972;5.682;2024-03-25T13:28:33;5.82;;;3.92;;
75216;SDS011;63800;51.972;5.682;2024-03-25T13:30:58;6.10;;;4.10;;
75216;SDS011;63800;51.972;5.682;2024-03-25T13:33:24;9.77;;;4.60;;
75216;SDS011;63800;51.972;5.682;2024-03-25T13:35:49;7.47;;;3.97;;
75216;SDS011;63800;51.972;5.682;2024-03-25T13:38:15;8.35;;;4.13;;
75216;SDS011;63800;51.972;5.682;2024-03-25T13:40:40;8.77;;;4.30;;
75216;SDS011;63800;51.972;5.682;2024-03-25T13:43:06;5.97;;;3.67;;
75216;SDS011;63800;51.972;5.682;2024-03-25T13:45:34;5.88;;;3.90;;
75216;SDS011;63800;51.972;5.682;2024-03-25T13:47:59;6.68;;;3.67;;
75216;SDS011;63800;51.972;5.682;2024-03-25T13:50:25;6.38;;;4.22;;
75216;SDS011;63800;51.972;5.682;2024-03-25T13:52:50;5.85;;;4.32;;
75216;SDS011;63800;51.972;5.682;2024-03-25T13:55:16;8.10;;;3.90;;
75216;SDS011;63800;51.972;5.682;2024-03-25T13:57:41;8.35;;;3.80;;
75216;SDS011;63800;51.972;5.682;2024-03-25T14:00:07;5.25;;;3.70;;
75216;SDS011;63800;51.972;5.682;2024-03-25T14:02:35;5.63;;;3.67;;
75216;SDS011;63800;51.972;5.682;2024-03-25T14:05:02;5.85;;;3.88;;
75216;SDS011;63800;51.972;5.682;2024-03-25T14:07:28;4.85;;;3.75;;
75216;SDS011;63800;51.972;5.682;2024-03-25T14:09:53;5.43;;;4.13;;
75216;SDS011;63800;51.972;5.682;2024-03-25T14:12:19;5.70;;;4.32;;
75216;SDS011;63800;51.972;5.682;2024-03-25T14:14:45;7.15;;;3.58;;
75216;SDS011;63800;51.972;5.682;2024-03-25T14:17:10;7.07;;;3.80;;
75216;SDS011;63800;51.972;5.682;2024-03-25T14:19:35;6.78;;;4.70;;
75216;SDS011;63800;51.972;5.682;2024-03-25T14:22:01;7.15;;;3.30;;
75216;SDS011;63800;51.972;5.682;2024-03-25T14:24:26;6.82;;;4.30;;
75216;SDS011;63800;51.972;5.682;2024-03-25T14:26:52;5.95;;;4.03;;
75216;SDS011;63800;51.972;5.682;2024-03-25T14:29:18;5.88;;;4.35;;
75216;SDS011;63800;51.972;5.682;2024-03-25T14:31:44;5.82;;;4.20;;
75216;SDS011;63800;51.972;5.682;2024-03-25T14:34:09;6.07;;;3.92;;
75216;SDS011;63800;51.972;5.682;2024-03-25T14:36:34;7.45;;;3.60;;